createdAt,value
2023-02-22T00:01:36.032Z,3.35
2023-02-22T00:04:05.192Z,3.05
2023-02-22T00:06:33.015Z,3.42
2023-02-22T00:09:02.314Z,3.80
2023-02-22T00:11:29.042Z,3.95
2023-02-22T00:13:58.706Z,3.63
2023-02-22T00:16:26.475Z,3.13
2023-02-22T00:18:53.549Z,3.33
2023-02-22T00:21:20.927Z,2.72
2023-02-22T00:23:49.013Z,3.60
2023-02-22T00:26:19.035Z,3.25
2023-02-22T00:28:52.350Z,3.35
2023-02-22T00:31:20.302Z,3.85
2023-02-22T00:33:47.208Z,3.15
2023-02-22T00:36:14.577Z,3.20
2023-02-22T00:38:42.092Z,3.17
2023-02-22T00:41:09.551Z,2.95
2023-02-22T00:43:36.311Z,2.47
2023-02-22T00:46:03.719Z,2.97
2023-02-22T00:48:30.630Z,2.97
2023-02-22T00:50:57.493Z,3.40
2023-02-22T00:53:25.964Z,2.92
2023-02-22T00:55:53.289Z,2.88
2023-02-22T00:58:20.122Z,3.45
2023-02-22T01:00:47.365Z,3.22
2023-02-22T01:03:16.876Z,2.85
2023-02-22T01:05:44.216Z,3.17
2023-02-22T01:08:12.989Z,3.00
2023-02-22T01:10:40.536Z,2.70
2023-02-22T01:13:12.555Z,3.00
2023-02-22T01:15:42.183Z,3.10
2023-02-22T01:18:09.262Z,3.00
2023-02-22T01:20:36.858Z,2.53
2023-02-22T01:23:07.681Z,2.92
2023-02-22T01:25:35.795Z,2.55
2023-02-22T01:28:04.657Z,3.50
2023-02-22T01:30:34.462Z,2.65
2023-02-22T01:33:02.807Z,3.15
2023-02-22T01:35:32.857Z,3.08
2023-02-22T01:37:59.660Z,3.13
2023-02-22T01:40:29.943Z,3.38
2023-02-22T01:42:59.766Z,3.45
2023-02-22T01:45:32.824Z,3.28
2023-02-22T01:48:29.964Z,3.17
2023-02-22T01:51:12.560Z,2.85
2023-02-22T01:54:04.465Z,3.20
2023-02-22T01:56:34.679Z,3.00
2023-02-22T01:59:09.696Z,3.00
2023-02-22T02:01:39.330Z,3.50
2023-02-22T02:04:10.100Z,3.22
2023-02-22T02:06:37.623Z,3.03
2023-02-22T02:09:36.477Z,3.20
2023-02-22T02:12:05.204Z,3.10
2023-02-22T02:14:32.741Z,3.75
2023-02-22T02:17:03.365Z,3.47
2023-02-22T02:19:50.900Z,3.00
2023-02-22T02:22:44.117Z,3.13
2023-02-22T02:25:19.416Z,2.67
2023-02-22T02:27:55.725Z,2.80
2023-02-22T02:30:40.739Z,3.03
2023-02-22T02:33:16.424Z,3.30
2023-02-22T02:35:59.032Z,3.70
2023-02-22T02:38:57.944Z,3.20
2023-02-22T02:41:29.295Z,2.60
2023-02-22T02:44:13.097Z,3.92
2023-02-22T02:47:02.108Z,3.08
2023-02-22T02:49:54.477Z,2.60
2023-02-22T02:52:26.954Z,3.55
2023-02-22T02:54:55.573Z,3.55
2023-02-22T02:57:22.243Z,3.10
2023-02-22T02:59:48.910Z,2.72
2023-02-22T03:02:36.760Z,3.10
2023-02-22T03:05:28.143Z,2.75
2023-02-22T03:08:14.056Z,2.92
2023-02-22T03:10:50.348Z,2.78
2023-02-22T03:13:24.792Z,2.85
2023-02-22T03:16:05.731Z,2.42
2023-02-22T03:18:52.678Z,3.20
2023-02-22T03:21:25.543Z,2.45
2023-02-22T03:24:07.435Z,3.15
2023-02-22T03:26:41.621Z,3.22
2023-02-22T03:29:11.120Z,2.90
2023-02-22T03:31:48.637Z,2.30
2023-02-22T03:34:26.200Z,2.33
2023-02-22T03:36:59.708Z,2.58
2023-02-22T03:39:31.129Z,2.60
2023-02-22T03:42:03.551Z,3.28
2023-02-22T03:44:32.994Z,3.22
2023-02-22T03:47:05.719Z,2.72
2023-02-22T03:49:32.364Z,2.83
2023-02-22T03:52:01.080Z,3.17
2023-02-22T03:54:28.744Z,3.20
2023-02-22T03:57:05.180Z,3.45
2023-02-22T03:59:32.336Z,3.25
2023-02-22T04:01:59.074Z,2.22
2023-02-22T04:04:26.366Z,2.40
2023-02-22T04:06:53.277Z,2.75
2023-02-22T04:09:20.118Z,2.33
2023-02-22T04:11:46.975Z,3.03
2023-02-22T04:14:13.914Z,3.08
2023-02-22T04:16:40.808Z,2.90
2023-02-22T04:19:07.580Z,2.75
2023-02-22T04:21:34.302Z,2.67
2023-02-22T04:24:01.015Z,2.90
2023-02-22T04:26:28.003Z,2.70
2023-02-22T04:28:54.726Z,2.88
2023-02-22T04:31:21.485Z,3.10
2023-02-22T04:33:48.280Z,3.13
2023-02-22T04:36:16.130Z,3.25
2023-02-22T04:38:43.832Z,3.03
2023-02-22T04:41:11.375Z,2.60
2023-02-22T04:43:38.174Z,2.90
2023-02-22T04:46:05.278Z,3.05
2023-02-22T04:48:32.041Z,3.28
2023-02-22T04:50:58.917Z,2.90
2023-02-22T04:53:25.800Z,3.65
2023-02-22T04:55:52.546Z,2.67
2023-02-22T04:58:19.482Z,3.83
2023-02-22T05:00:46.210Z,4.03
2023-02-22T05:03:12.915Z,2.60
2023-02-22T05:05:39.619Z,2.85
2023-02-22T05:08:06.399Z,2.45
2023-02-22T05:10:33.563Z,3.55
2023-02-22T05:13:00.298Z,3.78
2023-02-22T05:15:27.200Z,4.50
2023-02-22T05:17:54.084Z,4.35
2023-02-22T05:20:30.317Z,4.95
2023-02-22T05:22:59.004Z,5.57
2023-02-22T05:25:27.073Z,4.72
2023-02-22T05:27:59.039Z,4.93
2023-02-22T05:30:30.060Z,5.65
2023-02-22T05:32:57.044Z,5.82
2023-02-22T05:35:24.037Z,4.22
2023-02-22T05:37:51.297Z,4.05
2023-02-22T05:40:22.750Z,4.45
2023-02-22T05:42:50.884Z,4.18
2023-02-22T05:45:19.903Z,3.55
2023-02-22T05:47:47.295Z,3.75
2023-02-22T05:50:14.855Z,4.22
2023-02-22T05:52:41.958Z,4.22
2023-02-22T05:55:11.356Z,4.10
2023-02-22T05:57:38.068Z,3.40
2023-02-22T06:00:08.681Z,3.53
2023-02-22T06:02:35.413Z,4.13
2023-02-22T06:05:02.149Z,2.90
2023-02-22T06:07:28.903Z,3.17
2023-02-22T06:09:55.571Z,3.30
2023-02-22T06:12:22.318Z,3.58
2023-02-22T06:14:49.043Z,3.28
2023-02-22T06:17:18.857Z,3.70
2023-02-22T06:19:46.457Z,2.85
2023-02-22T06:22:18.242Z,3.55
2023-02-22T06:24:45.083Z,3.50
2023-02-22T06:27:11.922Z,3.67
2023-02-22T06:29:38.854Z,3.03
2023-02-22T06:32:05.767Z,3.50
2023-02-22T06:34:32.496Z,3.70
2023-02-22T06:37:00.634Z,3.17
2023-02-22T06:39:27.724Z,3.30
2023-02-22T06:41:56.428Z,3.22
2023-02-22T06:44:23.476Z,3.75
2023-02-22T06:46:51.258Z,4.00
2023-02-22T06:49:20.430Z,4.68
2023-02-22T06:51:47.822Z,4.60
2023-02-22T06:54:14.874Z,5.38
2023-02-22T06:56:41.614Z,4.80
2023-02-22T06:59:08.593Z,4.47
2023-02-22T07:01:35.666Z,4.50
2023-02-22T07:04:02.489Z,5.18
2023-02-22T07:06:29.250Z,4.80
2023-02-22T07:08:56.050Z,5.90
2023-02-22T07:11:22.915Z,6.88
2023-02-22T07:13:49.681Z,5.72
2023-02-22T07:16:16.751Z,4.70
2023-02-22T07:18:43.489Z,4.43
2023-02-22T07:21:10.737Z,5.10
2023-02-22T07:23:38.133Z,5.32
2023-02-22T07:26:05.503Z,5.97
2023-02-22T07:28:32.480Z,7.25
2023-02-22T07:30:59.276Z,6.60
2023-02-22T07:33:26.838Z,9.13
2023-02-22T07:35:53.712Z,7.15
2023-02-22T07:38:21.108Z,7.18
2023-02-22T07:40:48.064Z,7.20
2023-02-22T07:43:22.541Z,9.18
2023-02-22T07:45:51.799Z,8.38
2023-02-22T07:48:20.018Z,7.85
2023-02-22T07:50:47.162Z,7.47
2023-02-22T07:53:18.111Z,6.70
2023-02-22T07:55:45.042Z,5.40
2023-02-22T07:58:15.571Z,5.60
2023-02-22T08:00:44.224Z,6.88
2023-02-22T08:03:13.465Z,5.88
2023-02-22T08:05:42.865Z,6.70
2023-02-22T08:08:09.553Z,7.00
2023-02-22T08:10:36.462Z,7.45
2023-02-22T08:13:04.677Z,6.80
2023-02-22T08:15:34.907Z,5.70
2023-02-22T08:18:03.600Z,6.32
2023-02-22T08:20:30.877Z,6.28
2023-02-22T08:22:58.577Z,6.72
2023-02-22T08:25:27.557Z,6.85
2023-02-22T08:28:01.201Z,7.60
2023-02-22T08:30:30.559Z,5.72
2023-02-22T08:32:58.390Z,6.75
2023-02-22T08:35:27.409Z,6.72
2023-02-22T08:37:57.059Z,7.68
2023-02-22T08:40:25.527Z,7.25
2023-02-22T08:42:52.533Z,6.70
2023-02-22T08:45:19.884Z,6.95
2023-02-22T08:47:46.897Z,7.37
2023-02-22T08:50:25.424Z,7.23
2023-02-22T08:52:54.214Z,7.47
2023-02-22T08:55:25.760Z,6.90
2023-02-22T08:57:52.584Z,8.13
2023-02-22T09:00:21.045Z,8.07
2023-02-22T09:02:47.833Z,7.77
2023-02-22T09:05:17.067Z,7.63
2023-02-22T09:07:44.752Z,8.83
2023-02-22T09:10:20.417Z,7.77
2023-02-22T09:12:47.222Z,6.90
2023-02-22T09:15:15.343Z,7.80
2023-02-22T09:17:42.164Z,8.50
2023-02-22T09:20:11.855Z,7.60
2023-02-22T09:22:39.185Z,6.87
2023-02-22T09:25:16.199Z,8.90
2023-02-22T09:27:44.285Z,8.30
2023-02-22T09:30:32.696Z,8.57
2023-02-22T09:33:11.374Z,7.80
2023-02-22T09:35:42.476Z,6.90
2023-02-22T09:38:10.452Z,6.50
2023-02-22T09:40:45.104Z,6.03
2023-02-22T09:43:35.627Z,6.57
2023-02-22T09:46:19.382Z,6.80
2023-02-22T09:49:16.911Z,7.10
2023-02-22T09:52:00.711Z,6.60
2023-02-22T09:54:34.601Z,6.43
2023-02-22T09:57:05.616Z,7.27
2023-02-22T09:59:40.246Z,6.00
2023-02-22T10:02:34.609Z,5.97
2023-02-22T10:05:25.153Z,5.70
2023-02-22T10:08:08.184Z,5.17
2023-02-22T10:10:41.136Z,5.33
2023-02-22T10:13:28.221Z,4.47
2023-02-22T10:15:59.717Z,4.10
2023-02-22T10:18:35.516Z,3.87
2023-02-22T10:21:16.280Z,4.20
2023-02-22T10:23:54.884Z,4.67
2023-02-22T10:26:26.689Z,4.17
2023-02-22T10:29:01.168Z,4.43
2023-02-22T10:31:34.856Z,3.00
2023-02-22T10:34:12.528Z,3.13
2023-02-22T10:36:39.354Z,3.77
2023-02-22T10:39:36.728Z,3.30
2023-02-22T10:42:09.333Z,3.63
2023-02-22T10:44:37.644Z,4.60
2023-02-22T10:47:07.714Z,4.07
2023-02-22T10:49:48.822Z,3.23
2023-02-22T10:52:28.168Z,3.40
2023-02-22T10:55:13.780Z,3.77
2023-02-22T10:57:44.460Z,2.93
2023-02-22T11:00:29.669Z,3.80
2023-02-22T11:02:59.328Z,3.20
2023-02-22T11:05:37.942Z,2.40
2023-02-22T11:08:28.197Z,2.40
2023-02-22T11:10:57.905Z,2.40
2023-02-22T11:13:30.048Z,2.13
2023-02-22T11:16:03.248Z,2.37
2023-02-22T11:18:35.559Z,2.37
2023-02-22T11:21:11.628Z,3.27
2023-02-22T11:23:44.640Z,2.70
2023-02-22T11:26:16.351Z,2.60
2023-02-22T11:28:49.291Z,2.20
2023-02-22T11:31:22.353Z,2.77
2023-02-22T11:36:40.958Z,2.50
2023-02-22T11:39:21.964Z,2.53
2023-02-22T11:41:51.497Z,2.30
2023-02-22T11:44:26.527Z,3.17
2023-02-22T11:46:56.380Z,3.97
2023-02-22T11:49:35.304Z,4.20
2023-02-22T11:52:23.936Z,2.67
2023-02-22T11:55:10.125Z,3.43
2023-02-22T11:58:04.529Z,3.57
2023-02-22T12:00:55.903Z,4.20
2023-02-22T12:03:40.133Z,4.00
2023-02-22T12:06:15.595Z,3.73
2023-02-22T12:09:00.208Z,3.93
2023-02-22T12:11:40.748Z,4.70
2023-02-22T12:14:26.371Z,4.20
2023-02-22T12:17:08.638Z,4.90
2023-02-22T12:20:07.307Z,4.33
2023-02-22T12:22:39.068Z,4.53
2023-02-22T12:25:19.522Z,3.57
2023-02-22T12:27:55.706Z,4.10
2023-02-22T12:30:30.695Z,4.23
2023-02-22T12:33:06.367Z,5.37
2023-02-22T12:35:39.702Z,5.03
2023-02-22T12:38:23.044Z,4.47
2023-02-22T12:41:03.929Z,5.07
2023-02-22T12:43:46.326Z,5.67
2023-02-22T12:46:13.085Z,4.77
2023-02-22T12:48:42.868Z,4.87
2023-02-22T12:51:23.938Z,5.53
2023-02-22T12:54:18.597Z,5.00
2023-02-22T12:57:01.116Z,4.57
2023-02-22T12:59:33.945Z,4.50
2023-02-22T13:02:24.102Z,4.50
2023-02-22T13:04:50.860Z,4.73
2023-02-22T13:07:39.214Z,5.53
2023-02-22T13:10:23.321Z,6.70
2023-02-22T13:13:04.875Z,6.20
2023-02-22T13:15:49.906Z,6.37
2023-02-22T13:18:39.152Z,8.00
2023-02-22T13:21:36.168Z,10.57
2023-02-22T13:24:13.548Z,6.50
2023-02-22T13:26:48.391Z,6.70
2023-02-22T13:29:28.731Z,6.30
2023-02-22T13:32:14.208Z,7.20
2023-02-22T13:35:25.835Z,6.83
2023-02-22T13:38:16.820Z,8.10
2023-02-22T13:40:49.604Z,7.33
2023-02-22T13:43:43.731Z,5.87
2023-02-22T13:46:33.335Z,7.30
2023-02-22T13:49:21.330Z,6.53
2023-02-22T13:51:53.026Z,7.17
2023-02-22T13:54:29.726Z,5.83
2023-02-22T13:56:57.695Z,6.83
2023-02-22T13:59:29.463Z,8.30
2023-02-22T14:01:57.451Z,8.50
2023-02-22T14:04:26.977Z,8.23
2023-02-22T14:06:54.438Z,9.17
2023-02-22T14:09:47.149Z,9.20
2023-02-22T14:12:36.780Z,8.67
2023-02-22T14:15:18.689Z,8.53
2023-02-22T14:17:57.319Z,9.30
2023-02-22T14:20:38.200Z,9.93
2023-02-22T14:23:43.297Z,9.40
2023-02-22T14:26:34.498Z,9.43
2023-02-22T14:29:09.244Z,9.07
2023-02-22T14:31:44.913Z,9.87
2023-02-22T14:34:20.093Z,10.47
2023-02-22T14:37:07.704Z,9.40
2023-02-22T14:39:57.139Z,10.80
2023-02-22T14:42:36.338Z,9.73
2023-02-22T14:45:23.189Z,10.37
2023-02-22T14:48:03.858Z,11.10
2023-02-22T14:51:01.997Z,11.30
2023-02-22T14:53:40.167Z,9.90
2023-02-22T14:56:29.946Z,10.90
2023-02-22T14:59:08.001Z,10.50
2023-02-22T15:01:49.109Z,11.40
2023-02-22T15:04:26.553Z,11.00
2023-02-22T15:06:55.612Z,10.80
2023-02-22T15:09:28.768Z,11.30
2023-02-22T15:12:05.427Z,10.63
2023-02-22T15:14:37.988Z,11.60
2023-02-22T15:17:10.379Z,10.57
2023-02-22T15:19:40.188Z,11.40
2023-02-22T15:22:22.505Z,11.70
2023-02-22T15:25:05.333Z,11.57
2023-02-22T15:27:36.879Z,13.07
2023-02-22T15:30:26.605Z,13.10
2023-02-22T15:33:04.967Z,11.53
2023-02-22T15:35:33.633Z,11.30
2023-02-22T15:38:12.167Z,10.57
2023-02-22T15:40:43.154Z,11.77
2023-02-22T15:43:19.199Z,13.80
2023-02-22T15:45:46.571Z,13.77
2023-02-22T15:48:15.819Z,12.53
2023-02-22T15:51:04.154Z,11.60
2023-02-22T15:53:39.942Z,11.63
2023-02-22T15:56:12.402Z,10.80
2023-02-22T15:58:40.085Z,12.07
2023-02-22T16:01:12.360Z,11.20
2023-02-22T16:03:45.675Z,10.80
2023-02-22T16:06:28.827Z,15.37
2023-02-22T16:08:58.843Z,10.77
2023-02-22T16:11:33.114Z,11.93
2023-02-22T16:14:05.643Z,10.63
2023-02-22T16:16:35.454Z,11.97
2023-02-22T16:19:31.405Z,11.60
2023-02-22T16:22:03.038Z,12.20
2023-02-22T16:24:35.802Z,11.23
2023-02-22T16:27:15.817Z,10.83
2023-02-22T16:29:42.880Z,11.03
2023-02-22T16:32:10.410Z,10.37
2023-02-22T16:34:37.691Z,11.40
2023-02-22T16:37:04.490Z,11.67
2023-02-22T16:39:34.714Z,10.97
2023-02-22T16:42:03.859Z,12.07
2023-02-22T16:44:30.770Z,12.10
2023-02-22T16:47:00.502Z,11.50
2023-02-22T16:49:27.450Z,12.03
2023-02-22T16:52:06.626Z,9.60
2023-02-22T16:54:36.775Z,11.40
2023-02-22T16:57:04.669Z,22.50
2023-02-22T16:59:39.594Z,19.10
2023-02-22T17:02:07.632Z,10.90
2023-02-22T17:04:34.849Z,10.57
2023-02-22T17:07:05.034Z,12.30
2023-02-22T17:09:32.859Z,10.43
2023-02-22T17:11:59.936Z,9.73
2023-02-22T17:14:33.618Z,8.80
2023-02-22T17:17:00.409Z,8.70
2023-02-22T17:19:27.609Z,8.50
2023-02-22T17:21:54.393Z,9.40
2023-02-22T17:24:24.416Z,10.47
2023-02-22T17:26:53.073Z,8.60
2023-02-22T17:29:20.688Z,9.83
2023-02-22T17:31:48.915Z,9.40
2023-02-22T17:34:15.988Z,9.90
2023-02-22T17:36:43.083Z,9.53
2023-02-22T17:39:10.649Z,9.53
2023-02-22T17:41:40.297Z,9.20
2023-02-22T17:44:07.762Z,11.90
2023-02-22T17:46:36.167Z,10.90
2023-02-22T17:49:03.330Z,10.97
2023-02-22T17:51:30.177Z,11.50
2023-02-22T17:53:57.000Z,10.87
2023-02-22T17:56:23.883Z,13.50
2023-02-22T17:58:54.032Z,11.20
2023-02-22T18:01:27.174Z,10.53
2023-02-22T18:03:55.845Z,10.47
2023-02-22T18:06:25.328Z,9.90
2023-02-22T18:08:56.495Z,8.70
2023-02-22T18:11:26.516Z,8.90
2023-02-22T18:13:57.707Z,9.00
2023-02-22T18:16:28.279Z,8.97
2023-02-22T18:18:56.496Z,9.20
2023-02-22T18:21:24.148Z,8.47
2023-02-22T18:23:50.874Z,7.00
2023-02-22T18:26:19.827Z,6.50
2023-02-22T18:28:50.137Z,6.03
2023-02-22T18:31:19.340Z,5.60
2023-02-22T18:33:49.301Z,6.20
2023-02-22T18:36:17.591Z,6.37
2023-02-22T18:38:44.759Z,6.53
2023-02-22T18:41:16.962Z,5.87
2023-02-22T18:43:46.338Z,6.40
2023-02-22T18:46:18.154Z,6.33
2023-02-22T18:48:46.910Z,6.97
2023-02-22T18:51:16.096Z,6.60
2023-02-22T18:53:47.924Z,8.67
2023-02-22T18:56:17.868Z,7.27
2023-02-22T18:58:45.057Z,6.50
2023-02-22T19:01:17.620Z,6.40
2023-02-22T19:03:47.143Z,5.67
2023-02-22T19:06:14.682Z,8.60
2023-02-22T19:08:42.733Z,10.23
2023-02-22T19:11:12.326Z,8.60
2023-02-22T19:13:39.105Z,8.37
2023-02-22T19:16:07.515Z,8.83
2023-02-22T19:18:34.538Z,8.30
2023-02-22T19:21:03.309Z,7.70
2023-02-22T19:23:34.366Z,6.47
2023-02-22T19:26:02.825Z,5.47
2023-02-22T19:28:34.070Z,5.43
2023-02-22T19:31:14.141Z,6.27
2023-02-22T19:33:41.555Z,7.33
2023-02-22T19:36:09.800Z,6.07
2023-02-22T19:38:36.964Z,5.90
2023-02-22T19:41:12.575Z,6.30
2023-02-22T19:43:39.558Z,6.47
2023-02-22T19:46:07.403Z,6.90
2023-02-22T19:48:34.994Z,8.70
2023-02-22T19:51:12.846Z,8.40
2023-02-22T19:53:40.915Z,7.77
2023-02-22T19:56:26.918Z,6.90
2023-02-22T19:58:56.023Z,6.00
2023-02-22T20:01:25.387Z,6.67
2023-02-22T20:03:59.821Z,6.53
2023-02-22T20:06:29.610Z,6.63
2023-02-22T20:08:57.305Z,6.30
2023-02-22T20:11:25.081Z,8.43
2023-02-22T20:13:51.966Z,7.40
2023-02-22T20:16:18.714Z,7.60
2023-02-22T20:18:47.570Z,7.87
2023-02-22T20:21:25.960Z,9.40
2023-02-22T20:23:57.026Z,9.00
2023-02-22T20:26:25.439Z,9.47
2023-02-22T20:28:53.332Z,8.40
2023-02-22T20:31:21.648Z,9.33
2023-02-22T20:33:53.106Z,9.20
2023-02-22T20:36:22.216Z,9.57
2023-02-22T20:38:51.480Z,7.73
2023-02-22T20:41:46.170Z,8.13
2023-02-22T20:44:14.960Z,5.70
2023-02-22T20:46:41.840Z,8.23
2023-02-22T20:49:11.266Z,8.13
2023-02-22T20:51:41.870Z,6.77
2023-02-22T20:54:11.567Z,8.13
2023-02-22T20:56:43.655Z,7.10
2023-02-22T20:59:15.855Z,7.70
2023-02-22T21:01:43.173Z,8.83
2023-02-22T21:04:10.660Z,8.30
2023-02-22T21:06:38.932Z,9.30
2023-02-22T21:09:08.816Z,8.80
2023-02-22T21:11:36.031Z,9.30
2023-02-22T21:14:03.567Z,9.37
2023-02-22T21:16:33.838Z,8.23
2023-02-22T21:19:03.042Z,8.30
2023-02-22T21:21:30.873Z,8.87
2023-02-22T21:24:01.952Z,10.63
2023-02-22T21:26:31.978Z,13.17
2023-02-22T21:29:01.024Z,13.27
2023-02-22T21:31:28.191Z,11.60
2023-02-22T21:33:57.033Z,8.73
2023-02-22T21:36:27.387Z,7.77
2023-02-22T21:38:59.958Z,11.13
2023-02-22T21:41:29.420Z,9.20
2023-02-22T21:43:57.904Z,11.10
2023-02-22T21:46:26.082Z,11.90
2023-02-22T21:48:52.845Z,8.97
2023-02-22T21:51:23.314Z,10.17
2023-02-22T21:53:52.372Z,8.83
2023-02-22T21:56:23.785Z,10.17
2023-02-22T21:58:59.539Z,8.67
2023-02-22T22:01:31.945Z,9.93
2023-02-22T22:04:00.175Z,9.03
2023-02-22T22:06:29.269Z,10.07
2023-02-22T22:08:57.189Z,10.33
2023-02-22T22:11:25.188Z,9.90
2023-02-22T22:13:57.559Z,9.97
2023-02-22T22:16:27.225Z,9.27
2023-02-22T22:18:54.901Z,11.97
2023-02-22T22:21:23.549Z,10.83
2023-02-22T22:23:54.290Z,10.97
2023-02-22T22:26:24.544Z,11.40
2023-02-22T22:28:56.084Z,10.83
2023-02-22T22:31:24.788Z,10.90
2023-02-22T22:33:52.297Z,10.00
2023-02-22T22:36:21.533Z,10.77
2023-02-22T22:38:48.823Z,10.60
2023-02-22T22:41:17.893Z,11.33
2023-02-22T22:43:48.188Z,9.70
2023-02-22T22:46:17.068Z,10.60
2023-02-22T22:48:46.914Z,9.67
2023-02-22T22:51:20.661Z,9.30
2023-02-22T22:53:49.127Z,9.27
2023-02-22T22:56:26.750Z,11.07
2023-02-22T22:58:56.574Z,11.87
2023-02-22T23:01:27.953Z,13.43
2023-02-22T23:04:02.156Z,12.97
2023-02-22T23:06:34.492Z,12.40
2023-02-22T23:09:11.364Z,11.20
2023-02-22T23:11:45.246Z,10.50
2023-02-22T23:14:24.080Z,11.60
2023-02-22T23:17:03.052Z,11.17
2023-02-22T23:19:35.733Z,10.30
2023-02-22T23:22:05.323Z,10.60
2023-02-22T23:24:36.141Z,9.63
2023-02-22T23:27:07.237Z,11.10
2023-02-22T23:29:37.987Z,9.90
2023-02-22T23:32:08.911Z,8.63
2023-02-22T23:34:41.058Z,10.77
2023-02-22T23:37:10.335Z,10.13
2023-02-22T23:39:37.283Z,9.80
2023-02-22T23:42:04.188Z,9.50
2023-02-22T23:44:31.088Z,10.13
2023-02-22T23:46:57.945Z,11.90
2023-02-22T23:49:37.866Z,10.00
2023-02-22T23:52:06.411Z,9.80
2023-02-22T23:54:36.440Z,10.70
2023-02-22T23:57:05.376Z,10.10
2023-02-22T23:59:33.305Z,10.10
